Aviation Digital Data Service (ADDS)

Output produced by METARs form (0615 UTC 21 January 2019)
found at http://www.aviationweather.gov/metar/data/
 
METAR text: KONT 210553Z 27007KT 10SM BKN017 14/11 A3000 RMK AO2 SLP155 CIG 015V019 T01390111 10206 20133 51005
Conditions at: KONT (ONTARIO , CA, US) observed 0553 UTC 21 January 2019
Temperature: 13.9°C (57°F)
Dewpoint: 11.1°C (52°F) [RH = 83%]
Pressure (altimeter): 30.00 inches Hg (1016.0 mb)
[Sea-level pressure: 1015.5 mb]
Winds: from the W (270 degrees) at 8 MPH (7 knots; 3.6 m/s)
Visibility: 10 or more miles (16+ km)
Ceiling: 1700 feet AGL
Clouds: broken clouds at 1700 feet AGL
Weather: no significant weather observed at this time

METAR text: KONT 210508Z 27004KT 10SM BKN019 14/11 A2999 RMK AO2 T01390106
Conditions at: KONT (ONTARIO , CA, US) observed 0508 UTC 21 January 2019
Temperature: 13.9°C (57°F)
Dewpoint: 10.6°C (51°F) [RH = 80%]
Pressure (altimeter): 29.99 inches Hg (1015.7 mb)
Winds: from the W (270 degrees) at 5 MPH (4 knots; 2.1 m/s)
Visibility: 10 or more miles (16+ km)
Ceiling: 1900 feet AGL
Clouds: broken clouds at 1900 feet AGL
Weather: no significant weather observed at this time

METAR text: KONT 210453Z 25004KT 10SM SCT020 SCT250 13/11 A3000 RMK AO2 SLP155 T01330106
Conditions at: KONT (ONTARIO , CA, US) observed 0453 UTC 21 January 2019
Temperature: 13.3°C (56°F)
Dewpoint: 10.6°C (51°F) [RH = 84%]
Pressure (altimeter): 30.00 inches Hg (1016.0 mb)
[Sea-level pressure: 1015.5 mb]
Winds: from the WSW (250 degrees) at 5 MPH (4 knots; 2.1 m/s)
Visibility: 10 or more miles (16+ km)
Ceiling: at least 12,000 feet AGL
Clouds: scattered clouds at 2000 feet AGL
scattered clouds at 25000 feet AGL
Weather: no significant weather observed at this time

METAR text: KONT 210353Z 27007KT 10SM FEW220 BKN250 14/10 A3000 RMK AO2 SLP157 T01390100
Conditions at: KONT (ONTARIO , CA, US) observed 0353 UTC 21 January 2019
Temperature: 13.9°C (57°F)
Dewpoint: 10.0°C (50°F) [RH = 77%]
Pressure (altimeter): 30.00 inches Hg (1016.0 mb)
[Sea-level pressure: 1015.7 mb]
Winds: from the W (270 degrees) at 8 MPH (7 knots; 3.6 m/s)
Visibility: 10 or more miles (16+ km)
Ceiling: 25000 feet AGL
Clouds: few clouds at 22000 feet AGL
broken clouds at 25000 feet AGL
Weather: no significant weather observed at this time

METAR text: KONT 210253Z 24007KT 10SM SCT220 OVC250 16/09 A2999 RMK AO2 SLP153 T01610094 53002
Conditions at: KONT (ONTARIO , CA, US) observed 0253 UTC 21 January 2019
Temperature: 16.1°C (61°F)
Dewpoint: 9.4°C (49°F) [RH = 64%]
Pressure (altimeter): 29.99 inches Hg (1015.7 mb)
[Sea-level pressure: 1015.3 mb]
Winds: from the WSW (240 degrees) at 8 MPH (7 knots; 3.6 m/s)
Visibility: 10 or more miles (16+ km)
Ceiling: 25000 feet AGL
Clouds: scattered clouds at 22000 feet AGL
overcast cloud deck at 25000 feet AGL
Weather: no significant weather observed at this time

METAR text: KONT 210153Z 24007KT 10SM SCT210 OVC250 17/09 A2999 RMK AO2 SLP152 T01720089
Conditions at: KONT (ONTARIO , CA, US) observed 0153 UTC 21 January 2019
Temperature: 17.2°C (63°F)
Dewpoint: 8.9°C (48°F) [RH = 58%]
Pressure (altimeter): 29.99 inches Hg (1015.7 mb)
[Sea-level pressure: 1015.2 mb]
Winds: from the WSW (240 degrees) at 8 MPH (7 knots; 3.6 m/s)
Visibility: 10 or more miles (16+ km)
Ceiling: 25000 feet AGL
Clouds: scattered clouds at 21000 feet AGL
overcast cloud deck at 25000 feet AGL
Weather: no significant weather observed at this time

METAR text: KONT 210053Z 24009KT 10SM SCT200 OVC250 18/09 A2998 RMK AO2 SLP149 T01830094
Conditions at: KONT (ONTARIO , CA, US) observed 0053 UTC 21 January 2019
Temperature: 18.3°C (65°F)
Dewpoint: 9.4°C (49°F) [RH = 56%]
Pressure (altimeter): 29.98 inches Hg (1015.3 mb)
[Sea-level pressure: 1014.9 mb]
Winds: from the WSW (240 degrees) at 10 MPH (9 knots; 4.6 m/s)
Visibility: 10 or more miles (16+ km)
Ceiling: 25000 feet AGL
Clouds: scattered clouds at 20000 feet AGL
overcast cloud deck at 25000 feet AGL
Weather: no significant weather observed at this time

METAR text: KONT 202353Z 24009KT 10SM FEW200 OVC250 21/07 A2998 RMK AO2 SLP148 T02060067 10228 20167 56018
Conditions at: KONT (ONTARIO , CA, US) observed 2353 UTC 20 January 2019
Temperature: 20.6°C (69°F)
Dewpoint: 6.7°C (44°F) [RH = 40%]
Pressure (altimeter): 29.98 inches Hg (1015.3 mb)
[Sea-level pressure: 1014.8 mb]
Winds: from the WSW (240 degrees) at 10 MPH (9 knots; 4.6 m/s)
Visibility: 10 or more miles (16+ km)
Ceiling: 25000 feet AGL
Clouds: few clouds at 20000 feet AGL
overcast cloud deck at 25000 feet AGL
Weather: no significant weather observed at this time

METAR text: KONT 202253Z 23005KT 10SM FEW200 OVC250 21/08 A3000 RMK AO2 SLP152 T02110083
Conditions at: KONT (ONTARIO , CA, US) observed 2253 UTC 20 January 2019
Temperature: 21.1°C (70°F)
Dewpoint: 8.3°C (47°F) [RH = 44%]
Pressure (altimeter): 30.00 inches Hg (1016.0 mb)
[Sea-level pressure: 1015.2 mb]
Winds: from the SW (230 degrees) at 6 MPH (5 knots; 2.6 m/s)
Visibility: 10 or more miles (16+ km)
Ceiling: 25000 feet AGL
Clouds: few clouds at 20000 feet AGL
overcast cloud deck at 25000 feet AGL
Weather: no significant weather observed at this time

METAR text: KONT 202153Z 00000KT 10SM BKN250 22/07 A2999 RMK AO2 SLP148 T02220067
Conditions at: KONT (ONTARIO , CA, US) observed 2153 UTC 20 January 2019
Temperature: 22.2°C (72°F)
Dewpoint: 6.7°C (44°F) [RH = 37%]
Pressure (altimeter): 29.99 inches Hg (1015.7 mb)
[Sea-level pressure: 1014.8 mb]
Winds: calm
Visibility: 10 or more miles (16+ km)
Ceiling: 25000 feet AGL
Clouds: broken clouds at 25000 feet AGL
Weather: no significant weather observed at this time

METAR text: KONT 202053Z 29004KT 10SM BKN250 21/07 A3004 RMK AO2 SLP165 T02110067 58024
Conditions at: KONT (ONTARIO , CA, US) observed 2053 UTC 20 January 2019
Temperature: 21.1°C (70°F)
Dewpoint: 6.7°C (44°F) [RH = 39%]
Pressure (altimeter): 30.04 inches Hg (1017.4 mb)
[Sea-level pressure: 1016.5 mb]
Winds: from the WNW (290 degrees) at 5 MPH (4 knots; 2.1 m/s)
Visibility: 10 or more miles (16+ km)
Ceiling: 25000 feet AGL
Clouds: broken clouds at 25000 feet AGL
Weather: no significant weather observed at this time

METAR text: KONT 201953Z 00000KT 10SM BKN250 21/07 A3006 RMK AO2 SLP173 T02110067
Conditions at: KONT (ONTARIO , CA, US) observed 1953 UTC 20 January 2019
Temperature: 21.1°C (70°F)
Dewpoint: 6.7°C (44°F) [RH = 39%]
Pressure (altimeter): 30.06 inches Hg (1018.0 mb)
[Sea-level pressure: 1017.3 mb]
Winds: calm
Visibility: 10 or more miles (16+ km)
Ceiling: 25000 feet AGL
Clouds: broken clouds at 25000 feet AGL
Weather: no significant weather observed at this time

METAR text: KONT 201853Z 00000KT 10SM BKN250 18/07 A3010 RMK AO2 SLP188 T01780067
Conditions at: KONT (ONTARIO , CA, US) observed 1853 UTC 20 January 2019
Temperature: 17.8°C (64°F)
Dewpoint: 6.7°C (44°F) [RH = 48%]
Pressure (altimeter): 30.10 inches Hg (1019.4 mb)
[Sea-level pressure: 1018.8 mb]
Winds: calm
Visibility: 10 or more miles (16+ km)
Ceiling: 25000 feet AGL
Clouds: broken clouds at 25000 feet AGL
Weather: no significant weather observed at this time

METAR text: KONT 201753Z 14003KT 10SM BKN250 17/06 A3011 RMK AO2 SLP192 T01670061 10167 20089 50002
Conditions at: KONT (ONTARIO , CA, US) observed 1753 UTC 20 January 2019
Temperature: 16.7°C (62°F)
Dewpoint: 6.1°C (43°F) [RH = 50%]
Pressure (altimeter): 30.11 inches Hg (1019.7 mb)
[Sea-level pressure: 1019.2 mb]
Winds: from the SE (140 degrees) at 3 MPH (3 knots; 1.5 m/s)
Visibility: 10 or more miles (16+ km)
Ceiling: 25000 feet AGL
Clouds: broken clouds at 25000 feet AGL
Weather: no significant weather observed at this time

METAR text: KONT 201653Z 00000KT 10SM BKN250 14/08 A3011 RMK AO2 SLP194 T01390078
Conditions at: KONT (ONTARIO , CA, US) observed 1653 UTC 20 January 2019
Temperature: 13.9°C (57°F)
Dewpoint: 7.8°C (46°F) [RH = 67%]
Pressure (altimeter): 30.11 inches Hg (1019.7 mb)
[Sea-level pressure: 1019.4 mb]
Winds: calm
Visibility: 10 or more miles (16+ km)
Ceiling: 25000 feet AGL
Clouds: broken clouds at 25000 feet AGL
Weather: no significant weather observed at this time

METAR text: KONT 201553Z 00000KT 10SM BKN250 10/06 A3011 RMK AO2 SLP196 T01000056
Conditions at: KONT (ONTARIO , CA, US) observed 1553 UTC 20 January 2019
Temperature: 10.0°C (50°F)
Dewpoint: 5.6°C (42°F) [RH = 74%]
Pressure (altimeter): 30.11 inches Hg (1019.7 mb)
[Sea-level pressure: 1019.6 mb]
Winds: calm
Visibility: 10 or more miles (16+ km)
Ceiling: 25000 feet AGL
Clouds: broken clouds at 25000 feet AGL
Weather: no significant weather observed at this time

METAR text: KONT 201453Z 05003KT 10SM BKN250 09/05 A3010 RMK AO2 SLP192 T00940050 55000
Conditions at: KONT (ONTARIO , CA, US) observed 1453 UTC 20 January 2019
Temperature: 9.4°C (49°F)
Dewpoint: 5.0°C (41°F) [RH = 74%]
Pressure (altimeter): 30.10 inches Hg (1019.4 mb)
[Sea-level pressure: 1019.2 mb]
Winds: from the NE (50 degrees) at 3 MPH (3 knots; 1.5 m/s)
Visibility: 10 or more miles (16+ km)
Ceiling: 25000 feet AGL
Clouds: broken clouds at 25000 feet AGL
Weather: no significant weather observed at this time

METAR text: KONT 201353Z 00000KT 10SM BKN250 10/05 A3009 RMK AO2 SLP186 T01000050
Conditions at: KONT (ONTARIO , CA, US) observed 1353 UTC 20 January 2019
Temperature: 10.0°C (50°F)
Dewpoint: 5.0°C (41°F) [RH = 71%]
Pressure (altimeter): 30.09 inches Hg (1019.0 mb)
[Sea-level pressure: 1018.6 mb]
Winds: calm
Visibility: 10 or more miles (16+ km)
Ceiling: 25000 feet AGL
Clouds: broken clouds at 25000 feet AGL
Weather: no significant weather observed at this time

METAR text: KONT 201253Z 01007KT 10SM BKN250 10/05 A3009 RMK AO2 SLP184 T01000050
Conditions at: KONT (ONTARIO , CA, US) observed 1253 UTC 20 January 2019
Temperature: 10.0°C (50°F)
Dewpoint: 5.0°C (41°F) [RH = 71%]
Pressure (altimeter): 30.09 inches Hg (1019.0 mb)
[Sea-level pressure: 1018.4 mb]
Winds: from the N (10 degrees) at 8 MPH (7 knots; 3.6 m/s)
Visibility: 10 or more miles (16+ km)
Ceiling: 25000 feet AGL
Clouds: broken clouds at 25000 feet AGL
Weather: no significant weather observed at this time

METAR text: KONT 201153Z 07003KT 10SM BKN250 09/05 A3011 RMK AO2 SLP188 T00940050 10144 20094 58015
Conditions at: KONT (ONTARIO , CA, US) observed 1153 UTC 20 January 2019
Temperature: 9.4°C (49°F)
Dewpoint: 5.0°C (41°F) [RH = 74%]
Pressure (altimeter): 30.11 inches Hg (1019.7 mb)
[Sea-level pressure: 1018.8 mb]
Winds: from the ENE (70 degrees) at 3 MPH (3 knots; 1.5 m/s)
Visibility: 10 or more miles (16+ km)
Ceiling: 25000 feet AGL
Clouds: broken clouds at 25000 feet AGL
Weather: no significant weather observed at this time

METAR text: KONT 201053Z 06003KT 10SM BKN250 11/06 A3012 RMK AO2 SLP194 T01060056
Conditions at: KONT (ONTARIO , CA, US) observed 1053 UTC 20 January 2019
Temperature: 10.6°C (51°F)
Dewpoint: 5.6°C (42°F) [RH = 71%]
Pressure (altimeter): 30.12 inches Hg (1020.1 mb)
[Sea-level pressure: 1019.4 mb]
Winds: from the ENE (60 degrees) at 3 MPH (3 knots; 1.5 m/s)
Visibility: 10 or more miles (16+ km)
Ceiling: 25000 feet AGL
Clouds: broken clouds at 25000 feet AGL
Weather: no significant weather observed at this time

METAR text: KONT 200953Z 36004KT 10SM BKN250 12/06 A3014 RMK AO2 SLP200 T01170061
Conditions at: KONT (ONTARIO , CA, US) observed 0953 UTC 20 January 2019
Temperature: 11.7°C (53°F)
Dewpoint: 6.1°C (43°F) [RH = 68%]
Pressure (altimeter): 30.14 inches Hg (1020.7 mb)
[Sea-level pressure: 1020.0 mb]
Winds: from the N (360 degrees) at 5 MPH (4 knots; 2.1 m/s)
Visibility: 10 or more miles (16+ km)
Ceiling: 25000 feet AGL
Clouds: broken clouds at 25000 feet AGL
Weather: no significant weather observed at this time

METAR text: KONT 200853Z 01004KT 10SM BKN250 12/06 A3015 RMK AO2 SLP204 T01170061 58007
Conditions at: KONT (ONTARIO , CA, US) observed 0853 UTC 20 January 2019
Temperature: 11.7°C (53°F)
Dewpoint: 6.1°C (43°F) [RH = 68%]
Pressure (altimeter): 30.15 inches Hg (1021.1 mb)
[Sea-level pressure: 1020.4 mb]
Winds: from the N (10 degrees) at 5 MPH (4 knots; 2.1 m/s)
Visibility: 10 or more miles (16+ km)
Ceiling: 25000 feet AGL
Clouds: broken clouds at 25000 feet AGL
Weather: no significant weather observed at this time

METAR text: KONT 200753Z 00000KT 10SM BKN250 13/07 A3017 RMK AO2 SLP210 T01330067 402500072
Conditions at: KONT (ONTARIO , CA, US) observed 0753 UTC 20 January 2019
Temperature: 13.3°C (56°F)
Dewpoint: 6.7°C (44°F) [RH = 64%]
Pressure (altimeter): 30.17 inches Hg (1021.8 mb)
[Sea-level pressure: 1021.0 mb]
Winds: calm
Visibility: 10 or more miles (16+ km)
Ceiling: 25000 feet AGL
Clouds: broken clouds at 25000 feet AGL
Weather: no significant weather observed at this time

METAR text: KONT 200653Z 03005KT 10SM BKN250 12/07 A3018 RMK AO2 SLP214 T01220067
Conditions at: KONT (ONTARIO , CA, US) observed 0653 UTC 20 January 2019
Temperature: 12.2°C (54°F)
Dewpoint: 6.7°C (44°F) [RH = 69%]
Pressure (altimeter): 30.18 inches Hg (1022.1 mb)
[Sea-level pressure: 1021.4 mb]
Winds: from the NNE (30 degrees) at 6 MPH (5 knots; 2.6 m/s)
Visibility: 10 or more miles (16+ km)
Ceiling: 25000 feet AGL
Clouds: broken clouds at 25000 feet AGL
Weather: no significant weather observed at this time

METAR text: KONT 200553Z VRB03KT 10SM BKN250 13/07 A3017 RMK AO2 SLP213 T01330072 10250 20122 51009
Conditions at: KONT (ONTARIO , CA, US) observed 0553 UTC 20 January 2019
Temperature: 13.3°C (56°F)
Dewpoint: 7.2°C (45°F) [RH = 66%]
Pressure (altimeter): 30.17 inches Hg (1021.8 mb)
[Sea-level pressure: 1021.3 mb]
Winds: variable direction winds at 3 MPH (3 knots; 1.5 m/s)
Visibility: 10 or more miles (16+ km)
Ceiling: 25000 feet AGL
Clouds: broken clouds at 25000 feet AGL
Weather: no significant weather observed at this time

METAR text: KONT 200453Z 00000KT 10SM SCT250 15/07 A3017 RMK AO2 SLP211 T01500067
Conditions at: KONT (ONTARIO , CA, US) observed 0453 UTC 20 January 2019
Temperature: 15.0°C (59°F)
Dewpoint: 6.7°C (44°F) [RH = 58%]
Pressure (altimeter): 30.17 inches Hg (1021.8 mb)
[Sea-level pressure: 1021.1 mb]
Winds: calm
Visibility: 10 or more miles (16+ km)
Ceiling: at least 12,000 feet AGL
Clouds: scattered clouds at 25000 feet AGL
Weather: no significant weather observed at this time

METAR text: KONT 200353Z 00000KT 10SM SCT250 14/07 A3016 RMK AO2 SLP213 T01440067
Conditions at: KONT (ONTARIO , CA, US) observed 0353 UTC 20 January 2019
Temperature: 14.4°C (58°F)
Dewpoint: 6.7°C (44°F) [RH = 60%]
Pressure (altimeter): 30.16 inches Hg (1021.4 mb)
[Sea-level pressure: 1021.3 mb]
Winds: calm
Visibility: 10 or more miles (16+ km)
Ceiling: at least 12,000 feet AGL
Clouds: scattered clouds at 25000 feet AGL
Weather: no significant weather observed at this time

METAR text: KONT 200253Z 34004KT 10SM SCT250 18/07 A3015 RMK AO2 SLP206 T01830067 55000
Conditions at: KONT (ONTARIO , CA, US) observed 0253 UTC 20 January 2019
Temperature: 18.3°C (65°F)
Dewpoint: 6.7°C (44°F) [RH = 47%]
Pressure (altimeter): 30.15 inches Hg (1021.1 mb)
[Sea-level pressure: 1020.6 mb]
Winds: from the NNW (340 degrees) at 5 MPH (4 knots; 2.1 m/s)
Visibility: 10 or more miles (16+ km)
Ceiling: at least 12,000 feet AGL
Clouds: scattered clouds at 25000 feet AGL
Weather: no significant weather observed at this time

METAR text: KONT 200153Z 31005KT 10SM SCT250 19/06 A3014 RMK AO2 SLP204 T01940061
Conditions at: KONT (ONTARIO , CA, US) observed 0153 UTC 20 January 2019
Temperature: 19.4°C (67°F)
Dewpoint: 6.1°C (43°F) [RH = 42%]
Pressure (altimeter): 30.14 inches Hg (1020.7 mb)
[Sea-level pressure: 1020.4 mb]
Winds: from the NW (310 degrees) at 6 MPH (5 knots; 2.6 m/s)
Visibility: 10 or more miles (16+ km)
Ceiling: at least 12,000 feet AGL
Clouds: scattered clouds at 25000 feet AGL
Weather: no significant weather observed at this time

METAR text: KONT 200053Z 27004KT 10SM SCT250 23/04 A3014 RMK AO2 SLP200 T02280044
Conditions at: KONT (ONTARIO , CA, US) observed 0053 UTC 20 January 2019
Temperature: 22.8°C (73°F)
Dewpoint: 4.4°C (40°F) [RH = 30%]
Pressure (altimeter): 30.14 inches Hg (1020.7 mb)
[Sea-level pressure: 1020.0 mb]
Winds: from the W (270 degrees) at 5 MPH (4 knots; 2.1 m/s)
Visibility: 10 or more miles (16+ km)
Ceiling: at least 12,000 feet AGL
Clouds: scattered clouds at 25000 feet AGL
Weather: no significant weather observed at this time

METAR text: KONT 192353Z 00000KT 10SM SCT250 24/04 A3015 RMK AO2 SLP203 T02390044 10244 20167 56021
Conditions at: KONT (ONTARIO , CA, US) observed 2353 UTC 19 January 2019
Temperature: 23.9°C (75°F)
Dewpoint: 4.4°C (40°F) [RH = 28%]
Pressure (altimeter): 30.15 inches Hg (1021.1 mb)
[Sea-level pressure: 1020.3 mb]
Winds: calm
Visibility: 10 or more miles (16+ km)
Ceiling: at least 12,000 feet AGL
Clouds: scattered clouds at 25000 feet AGL
Weather: no significant weather observed at this time

METAR text: KONT 192253Z 29005KT 10SM FEW250 24/06 A3017 RMK AO2 SLP211 T02390061
Conditions at: KONT (ONTARIO , CA, US) observed 2253 UTC 19 January 2019
Temperature: 23.9°C (75°F)
Dewpoint: 6.1°C (43°F) [RH = 32%]
Pressure (altimeter): 30.17 inches Hg (1021.8 mb)
[Sea-level pressure: 1021.1 mb]
Winds: from the WNW (290 degrees) at 6 MPH (5 knots; 2.6 m/s)
Visibility: 10 or more miles (16+ km)
Ceiling: at least 12,000 feet AGL
Clouds: few clouds at 25000 feet AGL
Weather: no significant weather observed at this time

METAR text: KONT 192153Z 26004KT 10SM FEW250 23/07 A3019 RMK AO2 SLP215 T02280067
Conditions at: KONT (ONTARIO , CA, US) observed 2153 UTC 19 January 2019
Temperature: 22.8°C (73°F)
Dewpoint: 6.7°C (44°F) [RH = 35%]
Pressure (altimeter): 30.19 inches Hg (1022.4 mb)
[Sea-level pressure: 1021.5 mb]
Winds: from the W (260 degrees) at 5 MPH (4 knots; 2.1 m/s)
Visibility: 10 or more miles (16+ km)
Ceiling: at least 12,000 feet AGL
Clouds: few clouds at 25000 feet AGL
Weather: no significant weather observed at this time

METAR text: KONT 192053Z 30004KT 10SM FEW250 22/08 A3021 RMK AO2 SLP225 T02220078 58023
Conditions at: KONT (ONTARIO , CA, US) observed 2053 UTC 19 January 2019
Temperature: 22.2°C (72°F)
Dewpoint: 7.8°C (46°F) [RH = 40%]
Pressure (altimeter): 30.21 inches Hg (1023.1 mb)
[Sea-level pressure: 1022.5 mb]
Winds: from the WNW (300 degrees) at 5 MPH (4 knots; 2.1 m/s)
Visibility: 10 or more miles (16+ km)
Ceiling: at least 12,000 feet AGL
Clouds: few clouds at 25000 feet AGL
Weather: no significant weather observed at this time

METAR text: KONT 191953Z 00000KT 10SM FEW250 21/07 A3025 RMK AO2 SLP239 T02060067
Conditions at: KONT (ONTARIO , CA, US) observed 1953 UTC 19 January 2019
Temperature: 20.6°C (69°F)
Dewpoint: 6.7°C (44°F) [RH = 40%]
Pressure (altimeter): 30.25 inches Hg (1024.5 mb)
[Sea-level pressure: 1023.9 mb]
Winds: calm
Visibility: 10 or more miles (16+ km)
Ceiling: at least 12,000 feet AGL
Clouds: few clouds at 25000 feet AGL
Weather: no significant weather observed at this time

METAR text: KONT 191853Z 00000KT 10SM SCT250 19/07 A3027 RMK AO2 SLP246 T01940072
Conditions at: KONT (ONTARIO , CA, US) observed 1853 UTC 19 January 2019
Temperature: 19.4°C (67°F)
Dewpoint: 7.2°C (45°F) [RH = 45%]
Pressure (altimeter): 30.27 inches Hg (1025.1 mb)
[Sea-level pressure: 1024.6 mb]
Winds: calm
Visibility: 10 or more miles (16+ km)
Ceiling: at least 12,000 feet AGL
Clouds: scattered clouds at 25000 feet AGL
Weather: no significant weather observed at this time

Forecast for: KONT (ONTARIO , CA, US)
Text: KONT 210520Z 2106/2212 25007KT P6SM BKN015
Forecast period: 0600 to 0900 UTC 21 January 2019
Forecast type: FROM: standard forecast or significant change
Winds: from the WSW (250 degrees) at 8 MPH (7 knots; 3.6 m/s)
Visibility: 6 or more miles 10+ km)
Ceiling: 1500 feet AGL
Clouds: broken clouds at 1500 feet AGL
Weather: no significant weather forecast for this period
Text: FM210900 25010G20KT P6SM SCT025
Forecast period: 0900 to 1500 UTC 21 January 2019
Forecast type: FROM: standard forecast or significant change
Winds: from the WSW (250 degrees) at 12 MPH (10 knots; 5.1 m/s)
gusting to 23 MPH (20 knots; 10.3 m/s)
Visibility: 6 or more miles 10+ km)
Ceiling: at least 12,000 feet AGL
Clouds: scattered clouds at 2500 feet AGL
Weather: no significant weather forecast for this period
Text: FM211500 27014G25KT P6SM FEW250
Forecast period: 1500 UTC 21 January 2019 to 0500 UTC 22 January 2019
Forecast type: FROM: standard forecast or significant change
Winds: from the W (270 degrees) at 16 MPH (14 knots; 7.2 m/s)
gusting to 29 MPH (25 knots; 12.9 m/s)
Visibility: 6 or more miles 10+ km)
Ceiling: at least 12,000 feet AGL
Clouds: few clouds at 25000 feet AGL
Weather: no significant weather forecast for this period
Text: FM220500 27007KT P6SM FEW250
Forecast period: 0500 to 1200 UTC 22 January 2019
Forecast type: FROM: standard forecast or significant change
Winds: from the W (270 degrees) at 8 MPH (7 knots; 3.6 m/s)
Visibility: 6 or more miles 10+ km)
Ceiling: at least 12,000 feet AGL
Clouds: few clouds at 25000 feet AGL
Weather: no significant weather forecast for this period